sensor_id;sensor_type;location;lat;lon;timestamp;P1;durP1;ratioP1;P2;durP2;ratioP2
33760;SDS011;20084;47.912;19.044;2022-12-18T00:00:44;23.55;;;13.68;;
33760;SDS011;20084;47.912;19.044;2022-12-18T00:03:12;24.98;;;13.65;;
33760;SDS011;20084;47.912;19.044;2022-12-18T00:05:45;24.35;;;13.05;;
33760;SDS011;20084;47.912;19.044;2022-12-18T00:08:14;26.73;;;13.77;;
33760;SDS011;20084;47.912;19.044;2022-12-18T00:10:40;24.10;;;13.25;;
33760;SDS011;20084;47.912;19.044;2022-12-18T00:13:06;25.85;;;14.32;;
33760;SDS011;20084;47.912;19.044;2022-12-18T00:15:35;26.92;;;14.48;;
33760;SDS011;20084;47.912;19.044;2022-12-18T00:18:01;23.20;;;12.50;;
33760;SDS011;20084;47.912;19.044;2022-12-18T00:20:27;23.92;;;13.55;;
33760;SDS011;20084;47.912;19.044;2022-12-18T00:22:53;26.88;;;14.52;;
33760;SDS011;20084;47.912;19.044;2022-12-18T00:25:19;23.85;;;13.57;;
33760;SDS011;20084;47.912;19.044;2022-12-18T00:27:45;26.45;;;14.68;;
33760;SDS011;20084;47.912;19.044;2022-12-18T00:30:10;26.63;;;14.93;;
33760;SDS011;20084;47.912;19.044;2022-12-18T00:32:36;29.75;;;15.88;;
33760;SDS011;20084;47.912;19.044;2022-12-18T00:35:02;28.45;;;14.45;;
33760;SDS011;20084;47.912;19.044;2022-12-18T00:37:28;29.83;;;15.77;;
33760;SDS011;20084;47.912;19.044;2022-12-18T00:39:54;30.70;;;15.32;;
33760;SDS011;20084;47.912;19.044;2022-12-18T00:42:20;27.77;;;14.68;;
33760;SDS011;20084;47.912;19.044;2022-12-18T00:45:04;29.05;;;15.10;;
33760;SDS011;20084;47.912;19.044;2022-12-18T00:47:30;25.83;;;14.63;;
33760;SDS011;20084;47.912;19.044;2022-12-18T00:49:56;32.47;;;17.40;;
33760;SDS011;20084;47.912;19.044;2022-12-18T00:52:21;30.73;;;15.88;;
33760;SDS011;20084;47.912;19.044;2022-12-18T00:54:47;28.58;;;16.33;;
33760;SDS011;20084;47.912;19.044;2022-12-18T00:57:13;35.17;;;18.65;;
33760;SDS011;20084;47.912;19.044;2022-12-18T00:59:38;33.35;;;17.15;;
33760;SDS011;20084;47.912;19.044;2022-12-18T01:02:04;33.97;;;17.50;;
33760;SDS011;20084;47.912;19.044;2022-12-18T01:04:31;27.95;;;16.45;;
33760;SDS011;20084;47.912;19.044;2022-12-18T01:06:57;28.98;;;16.17;;
33760;SDS011;20084;47.912;19.044;2022-12-18T01:09:22;29.67;;;15.90;;
33760;SDS011;20084;47.912;19.044;2022-12-18T01:11:48;31.08;;;16.90;;
33760;SDS011;20084;47.912;19.044;2022-12-18T01:14:13;30.55;;;17.27;;
33760;SDS011;20084;47.912;19.044;2022-12-18T01:16:39;32.42;;;17.50;;
33760;SDS011;20084;47.912;19.044;2022-12-18T01:19:05;30.02;;;17.42;;
33760;SDS011;20084;47.912;19.044;2022-12-18T01:21:31;32.35;;;18.48;;
33760;SDS011;20084;47.912;19.044;2022-12-18T01:23:56;33.53;;;18.92;;
33760;SDS011;20084;47.912;19.044;2022-12-18T01:26:22;35.30;;;19.38;;
33760;SDS011;20084;47.912;19.044;2022-12-18T01:28:49;30.27;;;17.88;;
33760;SDS011;20084;47.912;19.044;2022-12-18T01:31:22;26.73;;;15.48;;
33760;SDS011;20084;47.912;19.044;2022-12-18T01:33:50;29.15;;;18.08;;
33760;SDS011;20084;47.912;19.044;2022-12-18T01:36:23;31.88;;;17.92;;
33760;SDS011;20084;47.912;19.044;2022-12-18T01:38:52;33.67;;;18.77;;
33760;SDS011;20084;47.912;19.044;2022-12-18T01:41:19;34.60;;;18.30;;
33760;SDS011;20084;47.912;19.044;2022-12-18T01:43:52;34.88;;;18.98;;
33760;SDS011;20084;47.912;19.044;2022-12-18T01:48:52;31.30;;;17.95;;
33760;SDS011;20084;47.912;19.044;2022-12-18T01:51:21;35.20;;;18.33;;
33760;SDS011;20084;47.912;19.044;2022-12-18T01:53:47;34.58;;;18.33;;
33760;SDS011;20084;47.912;19.044;2022-12-18T01:56:17;31.17;;;17.05;;
33760;SDS011;20084;47.912;19.044;2022-12-18T02:01:24;25.80;;;13.77;;
33760;SDS011;20084;47.912;19.044;2022-12-18T02:03:51;27.08;;;13.85;;
33760;SDS011;20084;47.912;19.044;2022-12-18T02:11:39;23.90;;;13.18;;
33760;SDS011;20084;47.912;19.044;2022-12-18T02:16:54;25.50;;;12.68;;
33760;SDS011;20084;47.912;19.044;2022-12-18T02:24:57;25.60;;;12.95;;
33760;SDS011;20084;47.912;19.044;2022-12-18T02:27:35;26.77;;;13.25;;
33760;SDS011;20084;47.912;19.044;2022-12-18T02:30:04;27.02;;;13.45;;
33760;SDS011;20084;47.912;19.044;2022-12-18T02:32:33;33.22;;;16.52;;
33760;SDS011;20084;47.912;19.044;2022-12-18T02:35:03;29.02;;;16.23;;
33760;SDS011;20084;47.912;19.044;2022-12-18T02:37:31;31.35;;;15.95;;
33760;SDS011;20084;47.912;19.044;2022-12-18T02:39:59;34.38;;;18.13;;
33760;SDS011;20084;47.912;19.044;2022-12-18T02:42:25;28.35;;;15.40;;
33760;SDS011;20084;47.912;19.044;2022-12-18T02:44:52;28.27;;;15.18;;
33760;SDS011;20084;47.912;19.044;2022-12-18T02:47:19;29.33;;;15.63;;
33760;SDS011;20084;47.912;19.044;2022-12-18T02:55:47;44.13;;;21.25;;
33760;SDS011;20084;47.912;19.044;2022-12-18T02:58:34;45.25;;;20.63;;
33760;SDS011;20084;47.912;19.044;2022-12-18T03:01:19;42.67;;;20.77;;
33760;SDS011;20084;47.912;19.044;2022-12-18T03:03:55;34.00;;;17.48;;
33760;SDS011;20084;47.912;19.044;2022-12-18T03:06:27;29.40;;;16.83;;
33760;SDS011;20084;47.912;19.044;2022-12-18T03:09:02;36.92;;;18.30;;
33760;SDS011;20084;47.912;19.044;2022-12-18T03:11:36;35.63;;;18.75;;
33760;SDS011;20084;47.912;19.044;2022-12-18T03:14:24;46.40;;;24.00;;
33760;SDS011;20084;47.912;19.044;2022-12-18T03:16:55;44.80;;;24.00;;
33760;SDS011;20084;47.912;19.044;2022-12-18T03:19:25;70.03;;;32.03;;
33760;SDS011;20084;47.912;19.044;2022-12-18T03:21:55;106.10;;;54.95;;
33760;SDS011;20084;47.912;19.044;2022-12-18T03:24:22;78.53;;;40.75;;
33760;SDS011;20084;47.912;19.044;2022-12-18T03:26:53;64.80;;;35.00;;
33760;SDS011;20084;47.912;19.044;2022-12-18T03:29:32;70.40;;;37.33;;
33760;SDS011;20084;47.912;19.044;2022-12-18T03:32:23;52.92;;;27.08;;
33760;SDS011;20084;47.912;19.044;2022-12-18T03:34:53;38.45;;;21.00;;
33760;SDS011;20084;47.912;19.044;2022-12-18T03:37:23;34.17;;;19.63;;
33760;SDS011;20084;47.912;19.044;2022-12-18T03:39:49;36.97;;;18.92;;
33760;SDS011;20084;47.912;19.044;2022-12-18T03:44:57;33.90;;;17.48;;
33760;SDS011;20084;47.912;19.044;2022-12-18T03:47:36;34.15;;;18.25;;
33760;SDS011;20084;47.912;19.044;2022-12-18T03:52:48;33.13;;;17.75;;
33760;SDS011;20084;47.912;19.044;2022-12-18T03:55:19;32.97;;;19.02;;
33760;SDS011;20084;47.912;19.044;2022-12-18T03:57:47;39.30;;;19.65;;
33760;SDS011;20084;47.912;19.044;2022-12-18T04:00:14;31.50;;;16.48;;
33760;SDS011;20084;47.912;19.044;2022-12-18T04:02:44;29.02;;;15.75;;
33760;SDS011;20084;47.912;19.044;2022-12-18T04:05:16;28.30;;;15.00;;
33760;SDS011;20084;47.912;19.044;2022-12-18T04:07:45;26.25;;;14.57;;
33760;SDS011;20084;47.912;19.044;2022-12-18T04:10:13;28.17;;;14.07;;
33760;SDS011;20084;47.912;19.044;2022-12-18T04:12:40;25.95;;;13.65;;
33760;SDS011;20084;47.912;19.044;2022-12-18T04:15:07;25.33;;;14.50;;
33760;SDS011;20084;47.912;19.044;2022-12-18T04:17:34;26.83;;;15.27;;
33760;SDS011;20084;47.912;19.044;2022-12-18T04:19:59;31.42;;;17.08;;
33760;SDS011;20084;47.912;19.044;2022-12-18T04:22:25;32.03;;;17.55;;
33760;SDS011;20084;47.912;19.044;2022-12-18T04:24:51;35.15;;;18.08;;
33760;SDS011;20084;47.912;19.044;2022-12-18T04:27:16;31.73;;;16.50;;
33760;SDS011;20084;47.912;19.044;2022-12-18T04:29:42;30.33;;;16.85;;
33760;SDS011;20084;47.912;19.044;2022-12-18T04:32:08;30.42;;;17.05;;
33760;SDS011;20084;47.912;19.044;2022-12-18T04:34:34;29.90;;;16.02;;
33760;SDS011;20084;47.912;19.044;2022-12-18T04:36:59;29.38;;;16.42;;
33760;SDS011;20084;47.912;19.044;2022-12-18T04:39:25;30.30;;;15.50;;
33760;SDS011;20084;47.912;19.044;2022-12-18T04:41:51;34.42;;;17.20;;
33760;SDS011;20084;47.912;19.044;2022-12-18T04:44:17;30.20;;;16.08;;
33760;SDS011;20084;47.912;19.044;2022-12-18T04:46:43;34.00;;;18.05;;
33760;SDS011;20084;47.912;19.044;2022-12-18T04:49:08;29.33;;;16.63;;
33760;SDS011;20084;47.912;19.044;2022-12-18T04:51:35;35.15;;;18.67;;
33760;SDS011;20084;47.912;19.044;2022-12-18T04:54:02;36.22;;;18.98;;
33760;SDS011;20084;47.912;19.044;2022-12-18T04:56:27;37.33;;;21.50;;
33760;SDS011;20084;47.912;19.044;2022-12-18T04:58:53;30.02;;;15.77;;
33760;SDS011;20084;47.912;19.044;2022-12-18T05:01:19;29.20;;;15.20;;
33760;SDS011;20084;47.912;19.044;2022-12-18T05:03:44;60.38;;;46.85;;
33760;SDS011;20084;47.912;19.044;2022-12-18T05:06:10;33.35;;;18.30;;
33760;SDS011;20084;47.912;19.044;2022-12-18T05:08:36;37.38;;;22.17;;
33760;SDS011;20084;47.912;19.044;2022-12-18T05:11:03;47.60;;;30.27;;
33760;SDS011;20084;47.912;19.044;2022-12-18T05:13:34;49.25;;;24.30;;
33760;SDS011;20084;47.912;19.044;2022-12-18T05:16:01;52.65;;;27.95;;
33760;SDS011;20084;47.912;19.044;2022-12-18T05:18:27;43.97;;;23.25;;
33760;SDS011;20084;47.912;19.044;2022-12-18T05:20:53;40.45;;;23.42;;
33760;SDS011;20084;47.912;19.044;2022-12-18T05:23:20;38.83;;;23.25;;
33760;SDS011;20084;47.912;19.044;2022-12-18T05:25:53;37.33;;;21.80;;
33760;SDS011;20084;47.912;19.044;2022-12-18T05:28:20;36.85;;;19.52;;
33760;SDS011;20084;47.912;19.044;2022-12-18T05:30:51;29.63;;;16.02;;
33760;SDS011;20084;47.912;19.044;2022-12-18T05:33:18;38.55;;;18.85;;
33760;SDS011;20084;47.912;19.044;2022-12-18T05:35:52;31.38;;;17.70;;
33760;SDS011;20084;47.912;19.044;2022-12-18T05:38:19;38.30;;;18.33;;
33760;SDS011;20084;47.912;19.044;2022-12-18T05:40:47;37.67;;;19.90;;
33760;SDS011;20084;47.912;19.044;2022-12-18T05:43:13;23.67;;;12.35;;
33760;SDS011;20084;47.912;19.044;2022-12-18T05:45:39;19.85;;;10.98;;
33760;SDS011;20084;47.912;19.044;2022-12-18T05:48:05;13.52;;;7.50;;
33760;SDS011;20084;47.912;19.044;2022-12-18T05:50:33;14.23;;;6.93;;
33760;SDS011;20084;47.912;19.044;2022-12-18T05:53:03;11.23;;;6.47;;
33760;SDS011;20084;47.912;19.044;2022-12-18T05:55:32;12.00;;;5.80;;
33760;SDS011;20084;47.912;19.044;2022-12-18T05:58:03;15.48;;;6.72;;
33760;SDS011;20084;47.912;19.044;2022-12-18T06:00:30;13.70;;;7.93;;
33760;SDS011;20084;47.912;19.044;2022-12-18T06:02:57;16.35;;;9.75;;
33760;SDS011;20084;47.912;19.044;2022-12-18T06:05:23;18.25;;;10.50;;
33760;SDS011;20084;47.912;19.044;2022-12-18T06:07:49;35.00;;;18.48;;
33760;SDS011;20084;47.912;19.044;2022-12-18T06:10:15;37.30;;;19.17;;
33760;SDS011;20084;47.912;19.044;2022-12-18T06:12:40;36.13;;;18.48;;
33760;SDS011;20084;47.912;19.044;2022-12-18T06:15:06;39.78;;;21.58;;
33760;SDS011;20084;47.912;19.044;2022-12-18T06:17:32;41.70;;;22.83;;
33760;SDS011;20084;47.912;19.044;2022-12-18T06:19:59;19.48;;;10.40;;
33760;SDS011;20084;47.912;19.044;2022-12-18T06:22:25;18.05;;;10.52;;
33760;SDS011;20084;47.912;19.044;2022-12-18T06:24:51;18.83;;;9.38;;
33760;SDS011;20084;47.912;19.044;2022-12-18T06:27:16;15.23;;;8.98;;
33760;SDS011;20084;47.912;19.044;2022-12-18T06:29:42;13.43;;;7.43;;
33760;SDS011;20084;47.912;19.044;2022-12-18T06:32:08;10.13;;;5.63;;
33760;SDS011;20084;47.912;19.044;2022-12-18T06:34:34;11.23;;;5.80;;
33760;SDS011;20084;47.912;19.044;2022-12-18T06:37:02;10.05;;;5.15;;
33760;SDS011;20084;47.912;19.044;2022-12-18T06:39:27;10.57;;;5.97;;
33760;SDS011;20084;47.912;19.044;2022-12-18T06:41:53;10.40;;;6.00;;
33760;SDS011;20084;47.912;19.044;2022-12-18T06:44:19;13.77;;;5.95;;
33760;SDS011;20084;47.912;19.044;2022-12-18T06:46:45;10.02;;;6.00;;
33760;SDS011;20084;47.912;19.044;2022-12-18T06:49:10;11.82;;;5.90;;
33760;SDS011;20084;47.912;19.044;2022-12-18T06:51:36;10.25;;;5.68;;
33760;SDS011;20084;47.912;19.044;2022-12-18T06:54:02;12.88;;;6.50;;
33760;SDS011;20084;47.912;19.044;2022-12-18T06:56:28;12.40;;;6.07;;
33760;SDS011;20084;47.912;19.044;2022-12-18T06:58:54;46.47;;;19.67;;
33760;SDS011;20084;47.912;19.044;2022-12-18T07:01:20;67.80;;;27.05;;
33760;SDS011;20084;47.912;19.044;2022-12-18T07:03:46;43.00;;;18.95;;
33760;SDS011;20084;47.912;19.044;2022-12-18T07:06:17;33.45;;;16.83;;
33760;SDS011;20084;47.912;19.044;2022-12-18T07:08:44;26.13;;;13.45;;
33760;SDS011;20084;47.912;19.044;2022-12-18T07:11:11;38.85;;;20.35;;
33760;SDS011;20084;47.912;19.044;2022-12-18T07:13:37;43.88;;;20.60;;
33760;SDS011;20084;47.912;19.044;2022-12-18T07:16:07;39.63;;;21.25;;
33760;SDS011;20084;47.912;19.044;2022-12-18T07:18:37;32.10;;;19.00;;
33760;SDS011;20084;47.912;19.044;2022-12-18T07:21:06;26.55;;;13.55;;
33760;SDS011;20084;47.912;19.044;2022-12-18T07:23:34;23.60;;;13.02;;
33760;SDS011;20084;47.912;19.044;2022-12-18T07:26:10;18.85;;;11.02;;
33760;SDS011;20084;47.912;19.044;2022-12-18T07:28:38;28.58;;;14.15;;
33760;SDS011;20084;47.912;19.044;2022-12-18T07:31:12;22.63;;;11.20;;
33760;SDS011;20084;47.912;19.044;2022-12-18T07:33:45;22.65;;;10.85;;
33760;SDS011;20084;47.912;19.044;2022-12-18T07:36:11;22.50;;;13.13;;
33760;SDS011;20084;47.912;19.044;2022-12-18T07:38:37;27.10;;;14.30;;
33760;SDS011;20084;47.912;19.044;2022-12-18T07:41:04;21.38;;;11.95;;
33760;SDS011;20084;47.912;19.044;2022-12-18T07:43:32;27.63;;;15.30;;
33760;SDS011;20084;47.912;19.044;2022-12-18T07:45:58;28.52;;;16.33;;
33760;SDS011;20084;47.912;19.044;2022-12-18T07:48:24;29.70;;;17.17;;
33760;SDS011;20084;47.912;19.044;2022-12-18T07:50:49;31.65;;;17.85;;
33760;SDS011;20084;47.912;19.044;2022-12-18T07:53:15;29.35;;;15.35;;
33760;SDS011;20084;47.912;19.044;2022-12-18T07:55:41;31.98;;;16.17;;
33760;SDS011;20084;47.912;19.044;2022-12-18T07:58:07;24.98;;;14.45;;
33760;SDS011;20084;47.912;19.044;2022-12-18T08:00:33;28.70;;;16.05;;
33760;SDS011;20084;47.912;19.044;2022-12-18T08:02:59;27.15;;;15.27;;
33760;SDS011;20084;47.912;19.044;2022-12-18T08:05:25;32.10;;;14.88;;
33760;SDS011;20084;47.912;19.044;2022-12-18T08:07:50;31.88;;;15.90;;
33760;SDS011;20084;47.912;19.044;2022-12-18T08:10:16;30.27;;;16.60;;
33760;SDS011;20084;47.912;19.044;2022-12-18T08:12:42;28.17;;;14.93;;
33760;SDS011;20084;47.912;19.044;2022-12-18T08:15:08;28.40;;;14.75;;
33760;SDS011;20084;47.912;19.044;2022-12-18T08:17:34;25.50;;;14.75;;
33760;SDS011;20084;47.912;19.044;2022-12-18T08:19:59;24.95;;;13.88;;
33760;SDS011;20084;47.912;19.044;2022-12-18T08:22:25;23.17;;;13.23;;
33760;SDS011;20084;47.912;19.044;2022-12-18T08:24:50;23.27;;;13.57;;
33760;SDS011;20084;47.912;19.044;2022-12-18T08:27:16;21.42;;;11.45;;
33760;SDS011;20084;47.912;19.044;2022-12-18T08:29:42;23.10;;;13.57;;
33760;SDS011;20084;47.912;19.044;2022-12-18T08:32:07;28.88;;;16.17;;
33760;SDS011;20084;47.912;19.044;2022-12-18T08:34:33;27.90;;;16.00;;
33760;SDS011;20084;47.912;19.044;2022-12-18T08:36:59;27.20;;;14.70;;
33760;SDS011;20084;47.912;19.044;2022-12-18T08:39:24;27.95;;;16.15;;
33760;SDS011;20084;47.912;19.044;2022-12-18T08:41:50;26.95;;;15.88;;
33760;SDS011;20084;47.912;19.044;2022-12-18T08:44:34;22.50;;;13.95;;
33760;SDS011;20084;47.912;19.044;2022-12-18T08:47:03;22.10;;;12.63;;
33760;SDS011;20084;47.912;19.044;2022-12-18T08:49:29;29.23;;;15.00;;
33760;SDS011;20084;47.912;19.044;2022-12-18T08:51:55;26.60;;;14.50;;
33760;SDS011;20084;47.912;19.044;2022-12-18T08:54:24;25.80;;;15.10;;
33760;SDS011;20084;47.912;19.044;2022-12-18T08:56:50;25.80;;;14.40;;
33760;SDS011;20084;47.912;19.044;2022-12-18T08:59:16;30.38;;;15.10;;
33760;SDS011;20084;47.912;19.044;2022-12-18T09:01:42;29.80;;;15.50;;
33760;SDS011;20084;47.912;19.044;2022-12-18T09:04:08;26.85;;;15.25;;
33760;SDS011;20084;47.912;19.044;2022-12-18T09:06:34;25.90;;;14.63;;
33760;SDS011;20084;47.912;19.044;2022-12-18T09:09:01;27.80;;;15.98;;
33760;SDS011;20084;47.912;19.044;2022-12-18T09:11:27;28.60;;;16.92;;
33760;SDS011;20084;47.912;19.044;2022-12-18T09:13:54;36.83;;;19.40;;
33760;SDS011;20084;47.912;19.044;2022-12-18T09:16:20;39.25;;;22.08;;
33760;SDS011;20084;47.912;19.044;2022-12-18T09:18:47;42.33;;;24.58;;
33760;SDS011;20084;47.912;19.044;2022-12-18T09:21:14;42.08;;;23.45;;
33760;SDS011;20084;47.912;19.044;2022-12-18T09:23:41;40.95;;;23.17;;
33760;SDS011;20084;47.912;19.044;2022-12-18T09:26:07;40.22;;;22.50;;
33760;SDS011;20084;47.912;19.044;2022-12-18T09:28:33;36.75;;;21.45;;
33760;SDS011;20084;47.912;19.044;2022-12-18T09:30:59;51.17;;;28.73;;
33760;SDS011;20084;47.912;19.044;2022-12-18T09:35:56;39.00;;;21.05;;
33760;SDS011;20084;47.912;19.044;2022-12-18T09:38:21;58.55;;;35.03;;
33760;SDS011;20084;47.912;19.044;2022-12-18T09:40:49;61.80;;;33.58;;
33760;SDS011;20084;47.912;19.044;2022-12-18T09:43:18;46.28;;;26.42;;
33760;SDS011;20084;47.912;19.044;2022-12-18T09:45:58;58.20;;;33.42;;
33760;SDS011;20084;47.912;19.044;2022-12-18T09:48:31;36.08;;;20.40;;
33760;SDS011;20084;47.912;19.044;2022-12-18T09:51:06;44.30;;;25.90;;
33760;SDS011;20084;47.912;19.044;2022-12-18T09:53:47;55.80;;;30.58;;
33760;SDS011;20084;47.912;19.044;2022-12-18T09:56:19;42.13;;;23.90;;
33760;SDS011;20084;47.912;19.044;2022-12-18T09:59:00;32.25;;;18.75;;
33760;SDS011;20084;47.912;19.044;2022-12-18T10:01:28;33.70;;;19.00;;
33760;SDS011;20084;47.912;19.044;2022-12-18T10:03:55;35.45;;;18.98;;
33760;SDS011;20084;47.912;19.044;2022-12-18T10:06:32;33.40;;;19.80;;
33760;SDS011;20084;47.912;19.044;2022-12-18T10:25:13;43.45;;;23.42;;
33760;SDS011;20084;47.912;19.044;2022-12-18T10:27:44;43.95;;;26.73;;
33760;SDS011;20084;47.912;19.044;2022-12-18T10:30:17;64.22;;;37.85;;
33760;SDS011;20084;47.912;19.044;2022-12-18T10:32:45;31.48;;;18.13;;
33760;SDS011;20084;47.912;19.044;2022-12-18T10:35:21;32.38;;;18.60;;
33760;SDS011;20084;47.912;19.044;2022-12-18T10:43:14;47.70;;;29.30;;
33760;SDS011;20084;47.912;19.044;2022-12-18T10:45:44;35.65;;;20.65;;
33760;SDS011;20084;47.912;19.044;2022-12-18T10:48:24;38.03;;;20.55;;
33760;SDS011;20084;47.912;19.044;2022-12-18T10:50:50;35.30;;;21.17;;
33760;SDS011;20084;47.912;19.044;2022-12-18T10:53:28;42.92;;;24.40;;
33760;SDS011;20084;47.912;19.044;2022-12-18T10:55:57;40.75;;;23.45;;
33760;SDS011;20084;47.912;19.044;2022-12-18T10:58:27;36.03;;;20.85;;
33760;SDS011;20084;47.912;19.044;2022-12-18T11:01:03;34.00;;;20.08;;
33760;SDS011;20084;47.912;19.044;2022-12-18T11:04:16;41.10;;;22.90;;
33760;SDS011;20084;47.912;19.044;2022-12-18T11:06:16;34.03;;;19.83;;
33760;SDS011;20084;47.912;19.044;2022-12-18T11:08:46;58.03;;;43.97;;
33760;SDS011;20084;47.912;19.044;2022-12-18T11:11:42;35.30;;;21.05;;
33760;SDS011;20084;47.912;19.044;2022-12-18T11:14:20;37.17;;;21.13;;
33760;SDS011;20084;47.912;19.044;2022-12-18T11:17:17;37.33;;;22.25;;
33760;SDS011;20084;47.912;19.044;2022-12-18T11:19:54;35.75;;;20.85;;
33760;SDS011;20084;47.912;19.044;2022-12-18T11:25:02;38.30;;;22.70;;
33760;SDS011;20084;47.912;19.044;2022-12-18T11:27:55;34.15;;;20.38;;
33760;SDS011;20084;47.912;19.044;2022-12-18T11:32:50;38.55;;;21.23;;
33760;SDS011;20084;47.912;19.044;2022-12-18T11:38:22;38.92;;;21.60;;
33760;SDS011;20084;47.912;19.044;2022-12-18T11:40:55;39.92;;;22.02;;
33760;SDS011;20084;47.912;19.044;2022-12-18T11:43:35;32.55;;;19.73;;
33760;SDS011;20084;47.912;19.044;2022-12-18T11:51:38;35.28;;;21.33;;
33760;SDS011;20084;47.912;19.044;2022-12-18T11:54:14;37.78;;;20.95;;
33760;SDS011;20084;47.912;19.044;2022-12-18T11:56:46;38.17;;;20.35;;
33760;SDS011;20084;47.912;19.044;2022-12-18T11:59:38;35.28;;;20.63;;
33760;SDS011;20084;47.912;19.044;2022-12-18T12:07:47;51.42;;;28.98;;
33760;SDS011;20084;47.912;19.044;2022-12-18T12:29:48;51.53;;;34.53;;
33760;SDS011;20084;47.912;19.044;2022-12-18T12:32:37;39.97;;;23.80;;
33760;SDS011;20084;47.912;19.044;2022-12-18T12:40:39;30.60;;;19.50;;
33760;SDS011;20084;47.912;19.044;2022-12-18T12:45:51;36.17;;;20.35;;
33760;SDS011;20084;47.912;19.044;2022-12-18T12:48:36;38.00;;;24.17;;
33760;SDS011;20084;47.912;19.044;2022-12-18T12:51:28;43.13;;;26.23;;
33760;SDS011;20084;47.912;19.044;2022-12-18T12:53:59;37.75;;;22.48;;
33760;SDS011;20084;47.912;19.044;2022-12-18T12:56:30;34.58;;;20.30;;
33760;SDS011;20084;47.912;19.044;2022-12-18T12:59:22;32.22;;;19.40;;
33760;SDS011;20084;47.912;19.044;2022-12-18T13:05:21;36.55;;;20.67;;
33760;SDS011;20084;47.912;19.044;2022-12-18T13:07:47;33.50;;;20.95;;
33760;SDS011;20084;47.912;19.044;2022-12-18T13:15:33;35.00;;;21.50;;
33760;SDS011;20084;47.912;19.044;2022-12-18T13:20:34;31.75;;;19.10;;
33760;SDS011;20084;47.912;19.044;2022-12-18T13:25:49;30.98;;;17.38;;
33760;SDS011;20084;47.912;19.044;2022-12-18T13:28:17;30.38;;;18.13;;
33760;SDS011;20084;47.912;19.044;2022-12-18T13:30:50;32.88;;;18.05;;
33760;SDS011;20084;47.912;19.044;2022-12-18T13:40:55;29.83;;;17.70;;
33760;SDS011;20084;47.912;19.044;2022-12-18T13:43:49;32.15;;;16.80;;
33760;SDS011;20084;47.912;19.044;2022-12-18T13:46:44;25.88;;;15.27;;
33760;SDS011;20084;47.912;19.044;2022-12-18T13:51:38;26.02;;;15.43;;
33760;SDS011;20084;47.912;19.044;2022-12-18T13:54:16;23.17;;;14.50;;
33760;SDS011;20084;47.912;19.044;2022-12-18T13:56:49;21.55;;;13.45;;
33760;SDS011;20084;47.912;19.044;2022-12-18T13:59:19;21.88;;;13.82;;
33760;SDS011;20084;47.912;19.044;2022-12-18T14:01:50;23.50;;;12.73;;
33760;SDS011;20084;47.912;19.044;2022-12-18T14:04:18;24.58;;;13.18;;
33760;SDS011;20084;47.912;19.044;2022-12-18T14:07:05;18.88;;;11.75;;
33760;SDS011;20084;47.912;19.044;2022-12-18T14:12:25;19.27;;;12.35;;
33760;SDS011;20084;47.912;19.044;2022-12-18T14:15:26;20.25;;;12.32;;
33760;SDS011;20084;47.912;19.044;2022-12-18T14:20:45;20.38;;;12.05;;
33760;SDS011;20084;47.912;19.044;2022-12-18T14:25:54;20.50;;;13.15;;
33760;SDS011;20084;47.912;19.044;2022-12-18T14:28:20;19.00;;;12.38;;
33760;SDS011;20084;47.912;19.044;2022-12-18T14:30:47;23.38;;;12.88;;
33760;SDS011;20084;47.912;19.044;2022-12-18T14:35:58;20.40;;;12.35;;
33760;SDS011;20084;47.912;19.044;2022-12-18T14:38:40;21.37;;;13.63;;
33760;SDS011;20084;47.912;19.044;2022-12-18T14:41:12;24.92;;;15.70;;
33760;SDS011;20084;47.912;19.044;2022-12-18T14:43:40;27.15;;;16.58;;
33760;SDS011;20084;47.912;19.044;2022-12-18T14:49:47;30.75;;;17.75;;
33760;SDS011;20084;47.912;19.044;2022-12-18T14:51:56;30.80;;;19.30;;
33760;SDS011;20084;47.912;19.044;2022-12-18T14:54:27;31.58;;;18.23;;
33760;SDS011;20084;47.912;19.044;2022-12-18T14:57:00;30.70;;;18.15;;
33760;SDS011;20084;47.912;19.044;2022-12-18T14:59:45;34.35;;;19.83;;
33760;SDS011;20084;47.912;19.044;2022-12-18T15:02:27;34.08;;;19.75;;
33760;SDS011;20084;47.912;19.044;2022-12-18T15:05:28;30.70;;;19.65;;
33760;SDS011;20084;47.912;19.044;2022-12-18T15:07:56;34.45;;;19.40;;
33760;SDS011;20084;47.912;19.044;2022-12-18T15:10:28;31.63;;;18.15;;
33760;SDS011;20084;47.912;19.044;2022-12-18T15:20:30;32.88;;;20.05;;
33760;SDS011;20084;47.912;19.044;2022-12-18T15:22:58;29.35;;;17.27;;
33760;SDS011;20084;47.912;19.044;2022-12-18T15:25:27;32.38;;;18.67;;
33760;SDS011;20084;47.912;19.044;2022-12-18T15:27:59;36.92;;;19.23;;
33760;SDS011;20084;47.912;19.044;2022-12-18T15:30:25;38.10;;;19.33;;
33760;SDS011;20084;47.912;19.044;2022-12-18T15:32:52;30.67;;;18.20;;
33760;SDS011;20084;47.912;19.044;2022-12-18T15:35:38;33.45;;;18.90;;
33760;SDS011;20084;47.912;19.044;2022-12-18T15:38:04;30.30;;;18.23;;
33760;SDS011;20084;47.912;19.044;2022-12-18T15:40:29;30.00;;;16.52;;
33760;SDS011;20084;47.912;19.044;2022-12-18T15:42:55;32.40;;;18.23;;
33760;SDS011;20084;47.912;19.044;2022-12-18T15:45:40;26.45;;;15.60;;
33760;SDS011;20084;47.912;19.044;2022-12-18T15:48:22;32.95;;;18.30;;
33760;SDS011;20084;47.912;19.044;2022-12-18T15:50:52;35.40;;;19.58;;
33760;SDS011;20084;47.912;19.044;2022-12-18T15:53:22;51.97;;;28.23;;
33760;SDS011;20084;47.912;19.044;2022-12-18T15:55:49;66.45;;;36.10;;
33760;SDS011;20084;47.912;19.044;2022-12-18T15:58:33;57.67;;;32.95;;
33760;SDS011;20084;47.912;19.044;2022-12-18T16:00:59;54.28;;;29.98;;
33760;SDS011;20084;47.912;19.044;2022-12-18T16:03:26;40.45;;;23.55;;
33760;SDS011;20084;47.912;19.044;2022-12-18T16:05:52;30.52;;;15.55;;
33760;SDS011;20084;47.912;19.044;2022-12-18T16:08:18;28.65;;;16.75;;
33760;SDS011;20084;47.912;19.044;2022-12-18T16:10:45;30.80;;;17.52;;
33760;SDS011;20084;47.912;19.044;2022-12-18T16:13:15;26.92;;;16.52;;
33760;SDS011;20084;47.912;19.044;2022-12-18T16:15:43;31.80;;;18.30;;
33760;SDS011;20084;47.912;19.044;2022-12-18T16:18:10;30.13;;;17.88;;
33760;SDS011;20084;47.912;19.044;2022-12-18T16:20:36;30.35;;;16.80;;
33760;SDS011;20084;47.912;19.044;2022-12-18T16:23:03;30.80;;;19.15;;
33760;SDS011;20084;47.912;19.044;2022-12-18T16:25:30;31.00;;;18.20;;
33760;SDS011;20084;47.912;19.044;2022-12-18T16:27:56;30.42;;;17.67;;
33760;SDS011;20084;47.912;19.044;2022-12-18T16:30:29;28.08;;;16.25;;
33760;SDS011;20084;47.912;19.044;2022-12-18T16:32:57;27.40;;;16.30;;
33760;SDS011;20084;47.912;19.044;2022-12-18T16:35:23;31.27;;;18.55;;
33760;SDS011;20084;47.912;19.044;2022-12-18T16:37:50;27.33;;;15.60;;
33760;SDS011;20084;47.912;19.044;2022-12-18T16:40:18;25.90;;;14.68;;
33760;SDS011;20084;47.912;19.044;2022-12-18T16:42:45;26.35;;;17.23;;
33760;SDS011;20084;47.912;19.044;2022-12-18T16:45:13;29.90;;;17.70;;
33760;SDS011;20084;47.912;19.044;2022-12-18T16:47:42;30.53;;;17.43;;
33760;SDS011;20084;47.912;19.044;2022-12-18T16:50:09;33.08;;;18.65;;